sensor_id;sensor_type;location;lat;lon;timestamp;pressure;altitude;pressure_sealevel;temperature;humidity
43071;BME280;36278;47.952;21.714;2022-09-09T00:01:23;100089.38;;;18.46;100.00
43071;BME280;36278;47.952;21.714;2022-09-09T00:09:27;100064.41;;;18.45;100.00
43071;BME280;36278;47.952;21.714;2022-09-09T00:12:15;100081.19;;;18.39;100.00
43071;BME280;36278;47.952;21.714;2022-09-09T00:14:54;100101.31;;;18.43;100.00
43071;BME280;36278;47.952;21.714;2022-09-09T00:22:59;100201.88;;;18.39;100.00
43071;BME280;36278;47.952;21.714;2022-09-09T00:25:34;100200.03;;;18.40;100.00
43071;BME280;36278;47.952;21.714;2022-09-09T00:28:08;100206.94;;;18.34;100.00
43071;BME280;36278;47.952;21.714;2022-09-09T00:30:40;100207.59;;;18.36;100.00
43071;BME280;36278;47.952;21.714;2022-09-09T00:33:11;100205.94;;;18.11;100.00
43071;BME280;36278;47.952;21.714;2022-09-09T00:35:44;100198.72;;;18.19;100.00
43071;BME280;36278;47.952;21.714;2022-09-09T00:38:18;100182.63;;;18.19;100.00
43071;BME280;36278;47.952;21.714;2022-09-09T00:40:51;100174.25;;;18.23;100.00
43071;BME280;36278;47.952;21.714;2022-09-09T00:43:25;100176.44;;;18.27;100.00
43071;BME280;36278;47.952;21.714;2022-09-09T00:48:16;100155.63;;;18.29;100.00
43071;BME280;36278;47.952;21.714;2022-09-09T00:50:52;100152.59;;;18.32;100.00
43071;BME280;36278;47.952;21.714;2022-09-09T00:56:17;100135.19;;;18.36;100.00
43071;BME280;36278;47.952;21.714;2022-09-09T00:58:58;100143.22;;;18.36;100.00
43071;BME280;36278;47.952;21.714;2022-09-09T01:01:25;100140.19;;;18.39;100.00
43071;BME280;36278;47.952;21.714;2022-09-09T01:03:55;100143.22;;;18.44;100.00
43071;BME280;36278;47.952;21.714;2022-09-09T01:06:28;100136.50;;;18.40;100.00
43071;BME280;36278;47.952;21.714;2022-09-09T01:11:36;100122.59;;;18.45;100.00
43071;BME280;36278;47.952;21.714;2022-09-09T01:17:03;100139.84;;;18.51;100.00
43071;BME280;36278;47.952;21.714;2022-09-09T01:20:04;100127.47;;;18.49;100.00
43071;BME280;36278;47.952;21.714;2022-09-09T01:27:59;100132.94;;;18.56;100.00
43071;BME280;36278;47.952;21.714;2022-09-09T01:30:26;100138.19;;;18.49;100.00
43071;BME280;36278;47.952;21.714;2022-09-09T01:32:57;100142.38;;;18.52;100.00
43071;BME280;36278;47.952;21.714;2022-09-09T01:37:56;100157.63;;;18.52;100.00
43071;BME280;36278;47.952;21.714;2022-09-09T01:40:22;100149.22;;;18.55;100.00
43071;BME280;36278;47.952;21.714;2022-09-09T01:42:47;100147.56;;;18.54;100.00
43071;BME280;36278;47.952;21.714;2022-09-09T01:45:13;100143.84;;;18.55;100.00
43071;BME280;36278;47.952;21.714;2022-09-09T01:47:39;100145.72;;;18.46;100.00
43071;BME280;36278;47.952;21.714;2022-09-09T01:50:06;100125.75;;;18.48;100.00
43071;BME280;36278;47.952;21.714;2022-09-09T01:52:37;100113.03;;;18.51;100.00
43071;BME280;36278;47.952;21.714;2022-09-09T01:55:03;100120.38;;;18.48;100.00
43071;BME280;36278;47.952;21.714;2022-09-09T02:00:11;100120.25;;;18.42;100.00
43071;BME280;36278;47.952;21.714;2022-09-09T02:05:40;100124.44;;;18.44;100.00
43071;BME280;36278;47.952;21.714;2022-09-09T02:08:09;100108.00;;;18.39;100.00
43071;BME280;36278;47.952;21.714;2022-09-09T02:13:11;100115.75;;;18.42;100.00
43071;BME280;36278;47.952;21.714;2022-09-09T02:15:55;100116.06;;;18.39;100.00
43071;BME280;36278;47.952;21.714;2022-09-09T02:18:30;100111.41;;;18.33;100.00
43071;BME280;36278;47.952;21.714;2022-09-09T02:20:58;100115.56;;;18.36;100.00
43071;BME280;36278;47.952;21.714;2022-09-09T02:23:24;100122.78;;;18.35;100.00
43071;BME280;36278;47.952;21.714;2022-09-09T02:25:51;100104.69;;;18.29;100.00
43071;BME280;36278;47.952;21.714;2022-09-09T02:28:20;100091.94;;;18.31;100.00
43071;BME280;36278;47.952;21.714;2022-09-09T02:30:48;100074.84;;;18.32;100.00
43071;BME280;36278;47.952;21.714;2022-09-09T02:33:23;100051.91;;;18.30;100.00
43071;BME280;36278;47.952;21.714;2022-09-09T02:35:51;100029.09;;;18.34;100.00
43071;BME280;36278;47.952;21.714;2022-09-09T02:38:19;100007.31;;;18.29;100.00
43071;BME280;36278;47.952;21.714;2022-09-09T02:40:47;100008.53;;;18.26;100.00
43071;BME280;36278;47.952;21.714;2022-09-09T02:43:14;100006.00;;;18.25;100.00
43071;BME280;36278;47.952;21.714;2022-09-09T02:48:23;100017.44;;;18.10;100.00
43071;BME280;36278;47.952;21.714;2022-09-09T02:51:30;100031.16;;;18.15;100.00
43071;BME280;36278;47.952;21.714;2022-09-09T02:54:00;100037.69;;;18.21;100.00
43071;BME280;36278;47.952;21.714;2022-09-09T02:56:30;100076.72;;;18.24;100.00
43071;BME280;36278;47.952;21.714;2022-09-09T02:58:58;100082.91;;;18.24;100.00
43071;BME280;36278;47.952;21.714;2022-09-09T03:01:23;100065.66;;;18.27;100.00
43071;BME280;36278;47.952;21.714;2022-09-09T03:03:49;100038.00;;;18.26;100.00
43071;BME280;36278;47.952;21.714;2022-09-09T03:06:14;100030.44;;;18.30;100.00
43071;BME280;36278;47.952;21.714;2022-09-09T03:08:40;100042.53;;;18.26;100.00
43071;BME280;36278;47.952;21.714;2022-09-09T03:11:06;100055.41;;;18.30;100.00
43071;BME280;36278;47.952;21.714;2022-09-09T03:13:32;100059.28;;;18.28;100.00
43071;BME280;36278;47.952;21.714;2022-09-09T03:15:57;100055.94;;;18.26;100.00
43071;BME280;36278;47.952;21.714;2022-09-09T03:18:24;100051.75;;;18.23;100.00
43071;BME280;36278;47.952;21.714;2022-09-09T03:20:50;100059.78;;;18.23;100.00
43071;BME280;36278;47.952;21.714;2022-09-09T03:23:16;100058.94;;;18.23;100.00
43071;BME280;36278;47.952;21.714;2022-09-09T03:25:49;100063.84;;;18.19;100.00
43071;BME280;36278;47.952;21.714;2022-09-09T03:28:15;100061.00;;;18.12;100.00
43071;BME280;36278;47.952;21.714;2022-09-09T03:30:41;100066.19;;;18.14;100.00
43071;BME280;36278;47.952;21.714;2022-09-09T03:33:06;100061.84;;;18.13;100.00
43071;BME280;36278;47.952;21.714;2022-09-09T03:35:31;100066.34;;;18.12;100.00
43071;BME280;36278;47.952;21.714;2022-09-09T03:37:57;100076.72;;;18.15;100.00
43071;BME280;36278;47.952;21.714;2022-09-09T03:40:22;100070.38;;;18.16;100.00
43071;BME280;36278;47.952;21.714;2022-09-09T03:42:48;100069.38;;;18.17;100.00
43071;BME280;36278;47.952;21.714;2022-09-09T03:45:14;100076.72;;;18.15;100.00
43071;BME280;36278;47.952;21.714;2022-09-09T03:47:39;100063.84;;;18.11;100.00
43071;BME280;36278;47.952;21.714;2022-09-09T03:50:06;100069.88;;;18.13;100.00
43071;BME280;36278;47.952;21.714;2022-09-09T03:52:38;100073.56;;;18.12;100.00
43071;BME280;36278;47.952;21.714;2022-09-09T03:55:05;100069.38;;;18.09;100.00
43071;BME280;36278;47.952;21.714;2022-09-09T03:57:31;100068.88;;;18.06;100.00
43071;BME280;36278;47.952;21.714;2022-09-09T03:59:57;100082.94;;;18.08;100.00
43071;BME280;36278;47.952;21.714;2022-09-09T04:02:23;100083.63;;;18.10;100.00
43071;BME280;36278;47.952;21.714;2022-09-09T04:04:48;100074.25;;;18.06;100.00
43071;BME280;36278;47.952;21.714;2022-09-09T04:07:14;100079.09;;;18.10;100.00
43071;BME280;36278;47.952;21.714;2022-09-09T04:09:39;100074.91;;;18.08;100.00
43071;BME280;36278;47.952;21.714;2022-09-09T04:12:05;100082.63;;;18.11;100.00
43071;BME280;36278;47.952;21.714;2022-09-09T04:14:31;100092.69;;;18.09;100.00
43071;BME280;36278;47.952;21.714;2022-09-09T04:16:57;100093.34;;;18.11;100.00
43071;BME280;36278;47.952;21.714;2022-09-09T04:19:24;100085.31;;;18.03;100.00
43071;BME280;36278;47.952;21.714;2022-09-09T04:21:50;100087.81;;;18.04;100.00
43071;BME280;36278;47.952;21.714;2022-09-09T04:24:17;100095.38;;;18.01;100.00
43071;BME280;36278;47.952;21.714;2022-09-09T04:26:42;100088.66;;;17.97;100.00
43071;BME280;36278;47.952;21.714;2022-09-09T04:29:08;100097.06;;;17.93;100.00
43071;BME280;36278;47.952;21.714;2022-09-09T04:31:34;100100.75;;;17.92;100.00
43071;BME280;36278;47.952;21.714;2022-09-09T04:33:59;100097.53;;;17.97;100.00
43071;BME280;36278;47.952;21.714;2022-09-09T04:36:30;100103.72;;;17.98;100.00
43071;BME280;36278;47.952;21.714;2022-09-09T04:38:57;100110.09;;;17.97;100.00
43071;BME280;36278;47.952;21.714;2022-09-09T04:41:22;100110.09;;;18.05;100.00
43071;BME280;36278;47.952;21.714;2022-09-09T04:43:48;100112.28;;;18.09;100.00
43071;BME280;36278;47.952;21.714;2022-09-09T04:46:13;100107.75;;;18.10;100.00
43071;BME280;36278;47.952;21.714;2022-09-09T04:48:39;100109.91;;;18.14;100.00
43071;BME280;36278;47.952;21.714;2022-09-09T04:51:06;100120.31;;;18.17;100.00
43071;BME280;36278;47.952;21.714;2022-09-09T04:53:32;100111.09;;;18.20;100.00
43071;BME280;36278;47.952;21.714;2022-09-09T04:56:04;100120.63;;;18.23;100.00
43071;BME280;36278;47.952;21.714;2022-09-09T04:58:31;100119.13;;;18.20;100.00
43071;BME280;36278;47.952;21.714;2022-09-09T05:01:04;100115.25;;;18.23;100.00
43071;BME280;36278;47.952;21.714;2022-09-09T05:03:30;100100.34;;;18.28;100.00
43071;BME280;36278;47.952;21.714;2022-09-09T05:06:03;100104.50;;;18.31;100.00
43071;BME280;36278;47.952;21.714;2022-09-09T05:08:29;100096.28;;;18.32;100.00
43071;BME280;36278;47.952;21.714;2022-09-09T05:10:54;100102.81;;;18.38;100.00
43071;BME280;36278;47.952;21.714;2022-09-09T05:13:20;100107.88;;;18.41;100.00
43071;BME280;36278;47.952;21.714;2022-09-09T05:15:53;100106.03;;;18.41;100.00
43071;BME280;36278;47.952;21.714;2022-09-09T05:18:19;100112.53;;;18.39;100.00
43071;BME280;36278;47.952;21.714;2022-09-09T05:20:44;100122.25;;;18.40;100.00
43071;BME280;36278;47.952;21.714;2022-09-09T05:23:09;100117.91;;;18.31;100.00
43071;BME280;36278;47.952;21.714;2022-09-09T05:25:38;100121.63;;;18.30;100.00
43071;BME280;36278;47.952;21.714;2022-09-09T05:28:04;100126.16;;;18.29;100.00
43071;BME280;36278;47.952;21.714;2022-09-09T05:30:30;100118.28;;;18.28;100.00
43071;BME280;36278;47.952;21.714;2022-09-09T05:32:56;100122.81;;;18.27;100.00
43071;BME280;36278;47.952;21.714;2022-09-09T05:35:21;100115.94;;;18.33;100.00
43071;BME280;36278;47.952;21.714;2022-09-09T05:37:48;100107.88;;;18.33;100.00
43071;BME280;36278;47.952;21.714;2022-09-09T05:40:14;100118.75;;;18.39;100.00
43071;BME280;36278;47.952;21.714;2022-09-09T05:42:40;100120.41;;;18.40;100.00
43071;BME280;36278;47.952;21.714;2022-09-09T05:45:07;100133.50;;;18.43;100.00
43071;BME280;36278;47.952;21.714;2022-09-09T05:47:33;100132.50;;;18.44;100.00
43071;BME280;36278;47.952;21.714;2022-09-09T05:49:59;100134.34;;;18.44;100.00
43071;BME280;36278;47.952;21.714;2022-09-09T05:52:24;100124.44;;;18.44;100.00
43071;BME280;36278;47.952;21.714;2022-09-09T05:54:51;100128.28;;;18.50;100.00
43071;BME280;36278;47.952;21.714;2022-09-09T05:57:17;100134.31;;;18.52;100.00
43071;BME280;36278;47.952;21.714;2022-09-09T05:59:44;100129.13;;;18.51;100.00
43071;BME280;36278;47.952;21.714;2022-09-09T06:02:09;100134.78;;;18.56;100.00
43071;BME280;36278;47.952;21.714;2022-09-09T06:04:35;100131.97;;;18.57;100.00
43071;BME280;36278;47.952;21.714;2022-09-09T06:07:00;100134.47;;;18.59;100.00
43071;BME280;36278;47.952;21.714;2022-09-09T06:09:26;100135.31;;;18.59;100.00
43071;BME280;36278;47.952;21.714;2022-09-09T06:11:51;100139.66;;;18.60;100.00
43071;BME280;36278;47.952;21.714;2022-09-09T06:14:17;100134.28;;;18.60;100.00
43071;BME280;36278;47.952;21.714;2022-09-09T06:16:46;100140.97;;;18.64;100.00
43071;BME280;36278;47.952;21.714;2022-09-09T06:19:12;100136.81;;;18.70;100.00
43071;BME280;36278;47.952;21.714;2022-09-09T06:21:38;100141.66;;;18.74;100.00
43071;BME280;36278;47.952;21.714;2022-09-09T06:24:04;100140.97;;;18.72;100.00
43071;BME280;36278;47.952;21.714;2022-09-09T06:26:35;100146.84;;;18.76;100.00
43071;BME280;36278;47.952;21.714;2022-09-09T06:29:02;100145.84;;;18.77;100.00
43071;BME280;36278;47.952;21.714;2022-09-09T06:31:33;100149.19;;;18.79;100.00
43071;BME280;36278;47.952;21.714;2022-09-09T06:34:01;100151.81;;;18.87;100.00
43071;BME280;36278;47.952;21.714;2022-09-09T06:36:29;100147.28;;;18.88;100.00
43071;BME280;36278;47.952;21.714;2022-09-09T06:38:55;100150.31;;;18.93;100.00
43071;BME280;36278;47.952;21.714;2022-09-09T06:41:22;100143.75;;;18.95;100.00
43071;BME280;36278;47.952;21.714;2022-09-09T06:43:48;100145.75;;;19.01;100.00
43071;BME280;36278;47.952;21.714;2022-09-09T06:46:16;100148.91;;;19.05;100.00
43071;BME280;36278;47.952;21.714;2022-09-09T06:48:43;100141.53;;;19.07;100.00
43071;BME280;36278;47.952;21.714;2022-09-09T06:51:17;100151.53;;;19.13;100.00
43071;BME280;36278;47.952;21.714;2022-09-09T06:53:43;100156.75;;;19.15;100.00
43071;BME280;36278;47.952;21.714;2022-09-09T06:58:35;100151.88;;;19.18;100.00
43071;BME280;36278;47.952;21.714;2022-09-09T07:01:06;100155.19;;;19.20;100.00
43071;BME280;36278;47.952;21.714;2022-09-09T07:03:33;100148.31;;;19.26;100.00
43071;BME280;36278;47.952;21.714;2022-09-09T07:05:59;100152.59;;;19.35;100.00
43071;BME280;36278;47.952;21.714;2022-09-09T07:08:24;100157.09;;;19.43;100.00
43071;BME280;36278;47.952;21.714;2022-09-09T07:10:51;100160.25;;;19.46;100.00
43071;BME280;36278;47.952;21.714;2022-09-09T07:13:24;100162.41;;;19.51;100.00
43071;BME280;36278;47.952;21.714;2022-09-09T07:15:51;100165.91;;;19.59;100.00
43071;BME280;36278;47.952;21.714;2022-09-09T07:18:17;100168.56;;;19.68;100.00
43071;BME280;36278;47.952;21.714;2022-09-09T07:20:42;100160.53;;;19.59;100.00
43071;BME280;36278;47.952;21.714;2022-09-09T07:23:08;100167.53;;;19.69;100.00
43071;BME280;36278;47.952;21.714;2022-09-09T07:25:34;100158.75;;;19.75;100.00
43071;BME280;36278;47.952;21.714;2022-09-09T07:27:59;100152.00;;;19.79;100.00
43071;BME280;36278;47.952;21.714;2022-09-09T07:30:24;100162.41;;;19.82;100.00
43071;BME280;36278;47.952;21.714;2022-09-09T07:32:53;100166.78;;;19.83;100.00
43071;BME280;36278;47.952;21.714;2022-09-09T07:35:18;100164.25;;;19.81;100.00
43071;BME280;36278;47.952;21.714;2022-09-09T07:37:44;100163.44;;;19.81;100.00
43071;BME280;36278;47.952;21.714;2022-09-09T07:40:10;100167.66;;;19.75;100.00
43071;BME280;36278;47.952;21.714;2022-09-09T07:42:36;100171.91;;;19.70;100.00
43071;BME280;36278;47.952;21.714;2022-09-09T07:45:03;100171.06;;;19.69;100.00
43071;BME280;36278;47.952;21.714;2022-09-09T07:47:30;100178.94;;;19.71;100.00
43071;BME280;36278;47.952;21.714;2022-09-09T07:49:56;100187.50;;;19.74;100.00
43071;BME280;36278;47.952;21.714;2022-09-09T07:52:22;100177.13;;;19.71;100.00
43071;BME280;36278;47.952;21.714;2022-09-09T07:54:47;100182.25;;;19.81;100.00
43071;BME280;36278;47.952;21.714;2022-09-09T07:57:13;100174.72;;;19.99;100.00
43071;BME280;36278;47.952;21.714;2022-09-09T07:59:40;100177.38;;;20.22;100.00
43071;BME280;36278;47.952;21.714;2022-09-09T08:02:06;100157.97;;;20.27;100.00
43071;BME280;36278;47.952;21.714;2022-09-09T08:04:31;100154.88;;;20.38;100.00
43071;BME280;36278;47.952;21.714;2022-09-09T08:07:00;100163.81;;;20.53;100.00
43071;BME280;36278;47.952;21.714;2022-09-09T08:09:27;100170.41;;;20.65;100.00
43071;BME280;36278;47.952;21.714;2022-09-09T08:11:58;100179.72;;;20.78;100.00
43071;BME280;36278;47.952;21.714;2022-09-09T08:14:24;100173.00;;;20.59;100.00
43071;BME280;36278;47.952;21.714;2022-09-09T08:16:50;100181.47;;;20.70;100.00
43071;BME280;36278;47.952;21.714;2022-09-09T08:19:16;100184.91;;;20.79;100.00
43071;BME280;36278;47.952;21.714;2022-09-09T08:21:43;100186.53;;;20.51;100.00
43071;BME280;36278;47.952;21.714;2022-09-09T08:24:10;100182.81;;;20.52;100.00
43071;BME280;36278;47.952;21.714;2022-09-09T08:26:42;100187.75;;;20.48;100.00
43071;BME280;36278;47.952;21.714;2022-09-09T08:29:09;100194.50;;;20.44;100.00
43071;BME280;36278;47.952;21.714;2022-09-09T08:31:46;100202.72;;;20.42;100.00
43071;BME280;36278;47.952;21.714;2022-09-09T08:34:13;100198.34;;;20.27;100.00
43071;BME280;36278;47.952;21.714;2022-09-09T08:36:44;100198.00;;;20.30;100.00
43071;BME280;36278;47.952;21.714;2022-09-09T08:39:12;100190.09;;;20.28;100.00
43071;BME280;36278;47.952;21.714;2022-09-09T08:50:05;100192.34;;;20.39;100.00
43071;BME280;36278;47.952;21.714;2022-09-09T08:55:46;100206.78;;;20.47;100.00
43071;BME280;36278;47.952;21.714;2022-09-09T08:58:22;100191.72;;;20.52;100.00
43071;BME280;36278;47.952;21.714;2022-09-09T09:09:07;100191.13;;;20.80;100.00
43071;BME280;36278;47.952;21.714;2022-09-09T09:11:37;100188.13;;;20.75;100.00
43071;BME280;36278;47.952;21.714;2022-09-09T09:14:10;100200.88;;;20.81;100.00
43071;BME280;36278;47.952;21.714;2022-09-09T09:16:57;100204.84;;;20.85;100.00
43071;BME280;36278;47.952;21.714;2022-09-09T09:19:24;100206.06;;;20.82;100.00
43071;BME280;36278;47.952;21.714;2022-09-09T09:22:00;100205.31;;;20.74;100.00
43071;BME280;36278;47.952;21.714;2022-09-09T09:24:53;100207.72;;;20.68;100.00
43071;BME280;36278;47.952;21.714;2022-09-09T09:27:33;100212.44;;;20.66;100.00
43071;BME280;36278;47.952;21.714;2022-09-09T09:30:20;100214.78;;;20.69;100.00
43071;BME280;36278;47.952;21.714;2022-09-09T09:32:58;100208.00;;;20.74;100.00
43071;BME280;36278;47.952;21.714;2022-09-09T09:35:25;100209.41;;;20.84;100.00
43071;BME280;36278;47.952;21.714;2022-09-09T09:37:50;100209.78;;;20.96;100.00
43071;BME280;36278;47.952;21.714;2022-09-09T09:40:21;100209.31;;;21.07;100.00
43071;BME280;36278;47.952;21.714;2022-09-09T09:42:56;100202.16;;;21.14;100.00
43071;BME280;36278;47.952;21.714;2022-09-09T09:45:41;100205.41;;;21.39;100.00
43071;BME280;36278;47.952;21.714;2022-09-09T09:48:13;100206.59;;;21.51;98.66
43071;BME280;36278;47.952;21.714;2022-09-09T09:50:51;100203.69;;;21.53;100.00
43071;BME280;36278;47.952;21.714;2022-09-09T09:53:24;100208.97;;;21.61;98.73
43071;BME280;36278;47.952;21.714;2022-09-09T09:55:58;100201.41;;;21.71;98.97
43071;BME280;36278;47.952;21.714;2022-09-09T09:58:27;100204.09;;;21.71;98.36
43071;BME280;36278;47.952;21.714;2022-09-09T10:00:53;100202.75;;;21.82;97.34
43071;BME280;36278;47.952;21.714;2022-09-09T10:03:29;100206.94;;;21.85;96.96
43071;BME280;36278;47.952;21.714;2022-09-09T10:05:55;100212.34;;;21.85;95.50
43071;BME280;36278;47.952;21.714;2022-09-09T10:08:25;100204.25;;;21.85;94.25
43071;BME280;36278;47.952;21.714;2022-09-09T10:14:19;100216.94;;;21.91;92.36
43071;BME280;36278;47.952;21.714;2022-09-09T10:16:52;100214.56;;;22.17;93.17
43071;BME280;36278;47.952;21.714;2022-09-09T10:19:34;100207.38;;;22.31;92.72
43071;BME280;36278;47.952;21.714;2022-09-09T10:27:30;100206.19;;;22.61;90.58
43071;BME280;36278;47.952;21.714;2022-09-09T10:30:18;100202.22;;;22.57;90.41
43071;BME280;36278;47.952;21.714;2022-09-09T10:35:34;100206.63;;;22.65;90.64
43071;BME280;36278;47.952;21.714;2022-09-09T10:38:42;100205.94;;;22.56;90.87
43071;BME280;36278;47.952;21.714;2022-09-09T10:54:52;100208.72;;;21.99;95.47
43071;BME280;36278;47.952;21.714;2022-09-09T10:59:55;100208.16;;;21.82;91.78
43071;BME280;36278;47.952;21.714;2022-09-09T11:02:30;100213.19;;;21.85;93.00
43071;BME280;36278;47.952;21.714;2022-09-09T11:07:34;100215.03;;;21.85;93.62
43071;BME280;36278;47.952;21.714;2022-09-09T11:10:11;100206.13;;;21.84;92.83
43071;BME280;36278;47.952;21.714;2022-09-09T11:12:41;100208.22;;;21.89;91.86
43071;BME280;36278;47.952;21.714;2022-09-09T11:15:19;100199.81;;;21.98;91.69
43071;BME280;36278;47.952;21.714;2022-09-09T11:17:53;100203.59;;;22.04;91.14
43071;BME280;36278;47.952;21.714;2022-09-09T11:20:22;100203.34;;;21.99;92.32
43071;BME280;36278;47.952;21.714;2022-09-09T11:23:03;100208.84;;;21.91;93.24
43071;BME280;36278;47.952;21.714;2022-09-09T11:25:36;100214.66;;;21.88;92.85
43071;BME280;36278;47.952;21.714;2022-09-09T11:41:51;100228.50;;;21.48;92.75
43071;BME280;36278;47.952;21.714;2022-09-09T11:44:21;100221.94;;;21.51;92.40
43071;BME280;36278;47.952;21.714;2022-09-09T11:46:51;100221.94;;;21.72;92.31
43071;BME280;36278;47.952;21.714;2022-09-09T11:49:28;100215.22;;;21.83;93.34
43071;BME280;36278;47.952;21.714;2022-09-09T11:51:54;100210.72;;;21.90;91.66
43071;BME280;36278;47.952;21.714;2022-09-09T11:54:33;100211.25;;;22.00;90.75
43071;BME280;36278;47.952;21.714;2022-09-09T11:57:25;100211.78;;;22.10;90.04
43071;BME280;36278;47.952;21.714;2022-09-09T11:59:51;100208.47;;;22.08;90.29
43071;BME280;36278;47.952;21.714;2022-09-09T12:02:26;100208.91;;;22.12;90.12
43071;BME280;36278;47.952;21.714;2022-09-09T12:05:07;100211.25;;;22.22;90.07
43071;BME280;36278;47.952;21.714;2022-09-09T12:08:06;100208.22;;;22.31;89.88
43071;BME280;36278;47.952;21.714;2022-09-09T12:10:37;100209.91;;;22.32;89.24
43071;BME280;36278;47.952;21.714;2022-09-09T12:13:18;100207.06;;;22.41;87.19
43071;BME280;36278;47.952;21.714;2022-09-09T12:15:53;100200.09;;;22.81;85.80
43071;BME280;36278;47.952;21.714;2022-09-09T12:18:34;100203.34;;;22.98;86.31
43071;BME280;36278;47.952;21.714;2022-09-09T12:26:22;100203.56;;;23.50;80.88
43071;BME280;36278;47.952;21.714;2022-09-09T12:31:44;100198.53;;;24.42;76.10
43071;BME280;36278;47.952;21.714;2022-09-09T12:39:57;100203.13;;;23.54;78.91
43071;BME280;36278;47.952;21.714;2022-09-09T12:42:25;100204.38;;;23.51;79.71
43071;BME280;36278;47.952;21.714;2022-09-09T12:44:58;100186.00;;;23.27;80.67
43071;BME280;36278;47.952;21.714;2022-09-09T12:47:31;100185.44;;;22.97;83.68
43071;BME280;36278;47.952;21.714;2022-09-09T12:50:00;100187.00;;;22.84;85.27
43071;BME280;36278;47.952;21.714;2022-09-09T12:52:35;100182.56;;;22.98;86.12
43071;BME280;36278;47.952;21.714;2022-09-09T12:55:05;100180.06;;;23.03;81.73
43071;BME280;36278;47.952;21.714;2022-09-09T12:57:36;100184.72;;;22.81;82.03
43071;BME280;36278;47.952;21.714;2022-09-09T13:00:08;100184.59;;;22.89;83.13
43071;BME280;36278;47.952;21.714;2022-09-09T13:02:46;100176.06;;;22.92;85.63
43071;BME280;36278;47.952;21.714;2022-09-09T13:05:15;100170.03;;;22.90;85.18
43071;BME280;36278;47.952;21.714;2022-09-09T13:07:42;100166.34;;;22.98;83.10
43071;BME280;36278;47.952;21.714;2022-09-09T13:10:11;100165.72;;;23.03;82.35
43071;BME280;36278;47.952;21.714;2022-09-09T13:12:37;100161.19;;;23.10;82.21
43071;BME280;36278;47.952;21.714;2022-09-09T13:15:03;100161.63;;;23.13;81.39
43071;BME280;36278;47.952;21.714;2022-09-09T13:17:28;100146.88;;;23.16;80.64
43071;BME280;36278;47.952;21.714;2022-09-09T13:19:54;100151.22;;;23.10;79.71
43071;BME280;36278;47.952;21.714;2022-09-09T13:22:30;100144.56;;;23.06;80.84
43071;BME280;36278;47.952;21.714;2022-09-09T13:25:13;100142.50;;;23.15;80.67
43071;BME280;36278;47.952;21.714;2022-09-09T13:30:22;100146.44;;;23.12;81.54
43071;BME280;36278;47.952;21.714;2022-09-09T13:35:35;100146.22;;;23.07;79.07
43071;BME280;36278;47.952;21.714;2022-09-09T13:38:08;100148.72;;;23.09;81.49
43071;BME280;36278;47.952;21.714;2022-09-09T13:40:37;100151.19;;;23.04;80.75
43071;BME280;36278;47.952;21.714;2022-09-09T13:43:03;100145.31;;;22.93;80.15
43071;BME280;36278;47.952;21.714;2022-09-09T13:45:28;100142.44;;;23.02;79.80
43071;BME280;36278;47.952;21.714;2022-09-09T13:47:55;100146.81;;;23.03;80.26
43071;BME280;36278;47.952;21.714;2022-09-09T13:52:56;100142.63;;;22.93;81.40
43071;BME280;36278;47.952;21.714;2022-09-09T13:55:27;100149.03;;;22.86;80.70
43071;BME280;36278;47.952;21.714;2022-09-09T14:00:20;100141.16;;;22.91;80.38
43071;BME280;36278;47.952;21.714;2022-09-09T14:02:47;100145.06;;;22.88;79.68
43071;BME280;36278;47.952;21.714;2022-09-09T14:05:12;100140.53;;;22.96;79.63
43071;BME280;36278;47.952;21.714;2022-09-09T14:07:39;100139.53;;;23.03;79.89
43071;BME280;36278;47.952;21.714;2022-09-09T14:10:06;100126.47;;;23.07;80.59
43071;BME280;36278;47.952;21.714;2022-09-09T14:12:31;100130.25;;;23.19;80.31
43071;BME280;36278;47.952;21.714;2022-09-09T14:14:57;100133.41;;;23.23;79.71
43071;BME280;36278;47.952;21.714;2022-09-09T14:17:22;100128.56;;;23.11;80.10
43071;BME280;36278;47.952;21.714;2022-09-09T14:19:48;100133.09;;;23.04;80.83
43071;BME280;36278;47.952;21.714;2022-09-09T14:22:14;100130.34;;;22.91;80.38
43071;BME280;36278;47.952;21.714;2022-09-09T14:24:39;100127.75;;;22.76;81.04
43071;BME280;36278;47.952;21.714;2022-09-09T14:27:06;100133.31;;;22.68;82.13
43071;BME280;36278;47.952;21.714;2022-09-09T14:29:31;100137.44;;;22.64;81.72
43071;BME280;36278;47.952;21.714;2022-09-09T14:31:58;100127.00;;;22.54;81.48
43071;BME280;36278;47.952;21.714;2022-09-09T14:34:26;100117.81;;;22.42;81.72
43071;BME280;36278;47.952;21.714;2022-09-09T14:36:52;100118.84;;;22.48;81.63
43071;BME280;36278;47.952;21.714;2022-09-09T14:39:17;100115.81;;;22.57;82.67
43071;BME280;36278;47.952;21.714;2022-09-09T14:41:42;100109.13;;;22.53;82.82
43071;BME280;36278;47.952;21.714;2022-09-09T14:44:08;100117.06;;;22.61;83.97
43071;BME280;36278;47.952;21.714;2022-09-09T14:46:34;100117.75;;;22.70;83.55
43071;BME280;36278;47.952;21.714;2022-09-09T14:49:00;100112.97;;;22.72;81.93
43071;BME280;36278;47.952;21.714;2022-09-09T14:51:26;100108.22;;;22.74;81.58
43071;BME280;36278;47.952;21.714;2022-09-09T14:53:57;100114.66;;;22.80;81.98
43071;BME280;36278;47.952;21.714;2022-09-09T14:56:25;100115.91;;;22.77;81.64